aviador You're here:

UHSS Decoded Metar

YUZHNO-SAKHALINSK in RUSSIA
Report Time2018-05-25 20:30:00
UTC Time2018-05-25 20:41:45
Flight Rules mvfr MVFR
Wind320° at 4 kt
W.Decomp.*RWY 01: 3.1 kt HW 2.5 kt LCW
W.Rank320° ranks 20
Current wind is below 320° avg. (6.6)
Visibility9999 m
Phenomena:Light Shower Rain
Clouds:Scattered 007 Hf
Broken CB 017 Hf
Ceiling1,700 ft
Temp04°C (ISA -11)
Dew Point04°C (100% RH)
AAT1.2°C
QNH1006 hPa
Density Alt-856 ft
Elevation102 ft
Report Wrong Elevation
Raw Report
METAR UHSS 252030Z 32002MPS 9999 -SHRA SCT007 BKN017CB 04/04 Q1006
R01/250255 NOSIG RMK MT OBSC QFE753/1004=

Extra information for UHSS:More info

Metar Taf Metar & Taf Last 4 Metars F.Rules Stats Wind Profile Meteogram Temp Stats Airport Information Weather charts Add Link Nearby VenuesMetar ALERT Operation Metar Decoded Social comments